createdAt,value
2022-10-02T00:19:26.154Z,253
2022-10-02T00:39:26.315Z,248
2022-10-02T00:59:26.310Z,244
2022-10-02T01:19:26.273Z,249
2022-10-02T01:39:26.249Z,247
2022-10-02T01:59:25.728Z,245
2022-10-02T02:19:26.210Z,243
2022-10-02T02:39:26.184Z,248
2022-10-02T02:59:25.952Z,240
2022-10-02T03:19:26.144Z,246
2022-10-02T03:39:26.431Z,243
2022-10-02T03:59:26.100Z,259
2022-10-02T04:19:26.138Z,257
2022-10-02T04:39:26.045Z,256
2022-10-02T04:59:26.018Z,262
2022-10-02T05:19:25.992Z,305
2022-10-02T05:39:25.982Z,513
2022-10-02T05:59:25.936Z,536
2022-10-02T06:19:25.918Z,471
2022-10-02T06:39:25.911Z,379
2022-10-02T06:59:25.372Z,347
2022-10-02T07:19:25.852Z,318
2022-10-02T07:39:25.830Z,311
2022-10-02T07:59:25.866Z,310
2022-10-02T08:19:25.774Z,365
2022-10-02T08:39:25.748Z,375
2022-10-02T08:59:25.742Z,366
2022-10-02T09:19:25.708Z,397
2022-10-02T09:59:25.154Z,388
2022-10-02T10:19:25.626Z,392
2022-10-02T10:39:25.586Z,370
2022-10-02T10:59:25.400Z,355
2022-10-02T11:19:25.588Z,355
2022-10-02T11:39:25.504Z,340
2022-10-02T11:59:25.472Z,330
2022-10-02T12:19:25.439Z,320
2022-10-02T12:39:24.914Z,334
2022-10-02T12:59:24.888Z,331
2022-10-02T13:19:25.348Z,325
2022-10-02T13:39:25.326Z,319
2022-10-02T14:19:25.262Z,301
2022-10-02T14:39:24.756Z,304
2022-10-02T14:59:25.244Z,302
2022-10-02T15:19:25.192Z,307
2022-10-02T15:39:24.981Z,302
2022-10-02T15:59:25.131Z,288
2022-10-02T16:19:25.178Z,300
2022-10-02T16:39:25.086Z,292
2022-10-02T17:19:25.036Z,276
2022-10-02T17:39:24.987Z,278
2022-10-02T17:59:24.970Z,269
2022-10-02T18:19:24.948Z,274
2022-10-02T18:59:24.905Z,274
2022-10-02T19:19:24.882Z,270
2022-10-02T19:39:24.844Z,272
2022-10-02T19:59:24.828Z,271
2022-10-02T20:19:31.830Z,260
2022-10-02T20:39:24.778Z,262
2022-10-02T20:59:24.767Z,259
2022-10-02T21:19:24.746Z,255
2022-10-02T21:39:31.733Z,254
2022-10-02T21:59:24.209Z,260
2022-10-02T22:19:24.666Z,253
2022-10-02T22:39:24.650Z,254
2022-10-02T23:19:24.109Z,244
2022-10-02T23:39:24.575Z,240
